sensor_id;sensor_type;location;lat;lon;timestamp;temperature;humidity
12819;DHT22;6474;53.474;9.894;2024-01-30T00:00:40;3.90;91.70
12819;DHT22;6474;53.474;9.894;2024-01-30T00:03:08;3.90;91.70
12819;DHT22;6474;53.474;9.894;2024-01-30T00:05:39;3.90;91.70
12819;DHT22;6474;53.474;9.894;2024-01-30T00:08:07;3.90;91.70
12819;DHT22;6474;53.474;9.894;2024-01-30T00:10:35;3.90;91.70
12819;DHT22;6474;53.474;9.894;2024-01-30T00:13:03;3.90;91.70
12819;DHT22;6474;53.474;9.894;2024-01-30T00:15:31;3.80;91.70
12819;DHT22;6474;53.474;9.894;2024-01-30T00:18:00;3.90;91.70
12819;DHT22;6474;53.474;9.894;2024-01-30T00:20:28;3.90;91.70
12819;DHT22;6474;53.474;9.894;2024-01-30T00:22:56;3.90;91.70
12819;DHT22;6474;53.474;9.894;2024-01-30T00:25:24;3.90;91.70
12819;DHT22;6474;53.474;9.894;2024-01-30T00:27:52;3.80;91.70
12819;DHT22;6474;53.474;9.894;2024-01-30T00:30:20;3.80;91.70
12819;DHT22;6474;53.474;9.894;2024-01-30T00:32:48;3.80;91.70
12819;DHT22;6474;53.474;9.894;2024-01-30T00:35:17;3.80;91.70
12819;DHT22;6474;53.474;9.894;2024-01-30T00:37:45;3.80;91.70
12819;DHT22;6474;53.474;9.894;2024-01-30T00:40:13;3.70;91.70
12819;DHT22;6474;53.474;9.894;2024-01-30T00:42:43;3.70;91.70
12819;DHT22;6474;53.474;9.894;2024-01-30T00:45:12;3.70;91.70
12819;DHT22;6474;53.474;9.894;2024-01-30T00:47:40;3.70;91.70
12819;DHT22;6474;53.474;9.894;2024-01-30T00:50:09;3.60;91.60
12819;DHT22;6474;53.474;9.894;2024-01-30T00:52:38;3.60;91.60
12819;DHT22;6474;53.474;9.894;2024-01-30T00:55:08;3.60;91.60
12819;DHT22;6474;53.474;9.894;2024-01-30T00:57:36;3.60;91.60
12819;DHT22;6474;53.474;9.894;2024-01-30T01:00:05;3.50;91.60
12819;DHT22;6474;53.474;9.894;2024-01-30T01:02:35;3.50;91.60
12819;DHT22;6474;53.474;9.894;2024-01-30T01:05:03;3.50;91.90
12819;DHT22;6474;53.474;9.894;2024-01-30T01:07:31;3.50;91.60
12819;DHT22;6474;53.474;9.894;2024-01-30T01:10:00;3.50;91.60
12819;DHT22;6474;53.474;9.894;2024-01-30T01:12:29;3.50;91.60
12819;DHT22;6474;53.474;9.894;2024-01-30T01:14:56;3.50;91.60
12819;DHT22;6474;53.474;9.894;2024-01-30T01:17:24;3.50;91.60
12819;DHT22;6474;53.474;9.894;2024-01-30T01:19:52;3.50;91.60
12819;DHT22;6474;53.474;9.894;2024-01-30T01:22:20;3.50;91.60
12819;DHT22;6474;53.474;9.894;2024-01-30T01:24:49;3.50;91.60
12819;DHT22;6474;53.474;9.894;2024-01-30T01:27:18;3.50;91.60
12819;DHT22;6474;53.474;9.894;2024-01-30T01:29:46;3.50;91.60
12819;DHT22;6474;53.474;9.894;2024-01-30T01:32:14;3.50;91.60
12819;DHT22;6474;53.474;9.894;2024-01-30T01:34:42;3.50;91.60
12819;DHT22;6474;53.474;9.894;2024-01-30T01:37:11;3.50;91.60
12819;DHT22;6474;53.474;9.894;2024-01-30T01:39:38;3.50;91.60
12819;DHT22;6474;53.474;9.894;2024-01-30T01:42:06;3.50;91.60
12819;DHT22;6474;53.474;9.894;2024-01-30T01:44:35;3.50;91.60
12819;DHT22;6474;53.474;9.894;2024-01-30T01:47:03;3.50;91.60
12819;DHT22;6474;53.474;9.894;2024-01-30T01:49:31;3.50;91.60
12819;DHT22;6474;53.474;9.894;2024-01-30T01:52:00;3.50;91.60
12819;DHT22;6474;53.474;9.894;2024-01-30T01:54:29;3.50;91.70
12819;DHT22;6474;53.474;9.894;2024-01-30T01:56:57;3.40;91.60
12819;DHT22;6474;53.474;9.894;2024-01-30T01:59:25;3.50;91.70
12819;DHT22;6474;53.474;9.894;2024-01-30T02:01:55;3.50;91.70
12819;DHT22;6474;53.474;9.894;2024-01-30T02:04:23;3.50;91.70
12819;DHT22;6474;53.474;9.894;2024-01-30T02:06:52;3.50;91.70
12819;DHT22;6474;53.474;9.894;2024-01-30T02:09:20;3.50;91.70
12819;DHT22;6474;53.474;9.894;2024-01-30T02:11:48;3.50;91.70
12819;DHT22;6474;53.474;9.894;2024-01-30T02:14:16;3.50;91.70
12819;DHT22;6474;53.474;9.894;2024-01-30T02:16:44;3.60;91.80
12819;DHT22;6474;53.474;9.894;2024-01-30T02:19:13;3.60;91.70
12819;DHT22;6474;53.474;9.894;2024-01-30T02:21:43;3.60;91.70
12819;DHT22;6474;53.474;9.894;2024-01-30T02:24:11;3.60;91.70
12819;DHT22;6474;53.474;9.894;2024-01-30T02:26:39;3.60;91.70
12819;DHT22;6474;53.474;9.894;2024-01-30T02:29:07;3.60;91.70
12819;DHT22;6474;53.474;9.894;2024-01-30T02:31:35;3.70;91.70
12819;DHT22;6474;53.474;9.894;2024-01-30T02:34:03;3.70;91.70
12819;DHT22;6474;53.474;9.894;2024-01-30T02:36:31;3.70;91.70
12819;DHT22;6474;53.474;9.894;2024-01-30T02:39:00;3.70;91.70
12819;DHT22;6474;53.474;9.894;2024-01-30T02:41:27;3.70;91.70
12819;DHT22;6474;53.474;9.894;2024-01-30T02:43:55;3.70;91.70
12819;DHT22;6474;53.474;9.894;2024-01-30T02:46:23;3.70;91.70
12819;DHT22;6474;53.474;9.894;2024-01-30T02:48:51;3.70;91.70
12819;DHT22;6474;53.474;9.894;2024-01-30T02:51:19;3.70;91.70
12819;DHT22;6474;53.474;9.894;2024-01-30T02:53:47;3.70;91.70
12819;DHT22;6474;53.474;9.894;2024-01-30T02:56:16;3.70;91.70
12819;DHT22;6474;53.474;9.894;2024-01-30T02:58:43;3.70;91.70
12819;DHT22;6474;53.474;9.894;2024-01-30T03:01:11;3.60;91.60
12819;DHT22;6474;53.474;9.894;2024-01-30T03:03:40;3.60;91.60
12819;DHT22;6474;53.474;9.894;2024-01-30T03:06:09;3.60;91.60
12819;DHT22;6474;53.474;9.894;2024-01-30T03:08:36;3.60;91.60
12819;DHT22;6474;53.474;9.894;2024-01-30T03:11:04;3.60;91.60
12819;DHT22;6474;53.474;9.894;2024-01-30T03:13:33;3.50;91.60
12819;DHT22;6474;53.474;9.894;2024-01-30T03:16:01;3.50;91.60
12819;DHT22;6474;53.474;9.894;2024-01-30T03:18:29;3.40;91.50
12819;DHT22;6474;53.474;9.894;2024-01-30T03:20:57;3.40;91.50
12819;DHT22;6474;53.474;9.894;2024-01-30T03:23:25;3.40;91.50
12819;DHT22;6474;53.474;9.894;2024-01-30T03:25:53;3.40;91.50
12819;DHT22;6474;53.474;9.894;2024-01-30T03:28:21;3.30;91.50
12819;DHT22;6474;53.474;9.894;2024-01-30T03:30:50;3.30;91.50
12819;DHT22;6474;53.474;9.894;2024-01-30T03:33:18;3.30;91.50
12819;DHT22;6474;53.474;9.894;2024-01-30T03:35:45;3.30;91.50
12819;DHT22;6474;53.474;9.894;2024-01-30T03:38:13;3.20;91.40
12819;DHT22;6474;53.474;9.894;2024-01-30T03:40:41;3.20;91.40
12819;DHT22;6474;53.474;9.894;2024-01-30T03:43:09;3.20;91.50
12819;DHT22;6474;53.474;9.894;2024-01-30T03:45:37;3.10;91.40
12819;DHT22;6474;53.474;9.894;2024-01-30T03:48:07;3.10;91.50
12819;DHT22;6474;53.474;9.894;2024-01-30T03:50:35;3.10;91.50
12819;DHT22;6474;53.474;9.894;2024-01-30T03:53:03;3.10;91.50
12819;DHT22;6474;53.474;9.894;2024-01-30T03:55:31;3.10;91.50
12819;DHT22;6474;53.474;9.894;2024-01-30T03:57:59;3.00;91.50
12819;DHT22;6474;53.474;9.894;2024-01-30T04:00:27;3.00;91.50
12819;DHT22;6474;53.474;9.894;2024-01-30T04:02:54;3.00;91.50
12819;DHT22;6474;53.474;9.894;2024-01-30T04:05:24;2.90;91.40
12819;DHT22;6474;53.474;9.894;2024-01-30T04:07:51;3.00;91.40
12819;DHT22;6474;53.474;9.894;2024-01-30T04:10:19;2.90;91.40
12819;DHT22;6474;53.474;9.894;2024-01-30T04:12:47;2.90;91.40
12819;DHT22;6474;53.474;9.894;2024-01-30T04:15:15;2.90;91.40
12819;DHT22;6474;53.474;9.894;2024-01-30T04:17:43;2.80;91.40
12819;DHT22;6474;53.474;9.894;2024-01-30T04:20:14;2.90;91.40
12819;DHT22;6474;53.474;9.894;2024-01-30T04:22:45;2.80;91.40
12819;DHT22;6474;53.474;9.894;2024-01-30T04:25:13;2.80;91.40
12819;DHT22;6474;53.474;9.894;2024-01-30T04:27:41;2.80;91.40
12819;DHT22;6474;53.474;9.894;2024-01-30T04:30:10;2.70;91.40
12819;DHT22;6474;53.474;9.894;2024-01-30T04:32:38;2.70;91.40
12819;DHT22;6474;53.474;9.894;2024-01-30T04:35:06;2.70;91.40
12819;DHT22;6474;53.474;9.894;2024-01-30T04:37:37;2.70;91.50
12819;DHT22;6474;53.474;9.894;2024-01-30T04:40:08;2.70;91.50
12819;DHT22;6474;53.474;9.894;2024-01-30T04:42:36;2.70;91.50
12819;DHT22;6474;53.474;9.894;2024-01-30T04:45:06;2.60;91.50
12819;DHT22;6474;53.474;9.894;2024-01-30T04:47:34;2.60;91.50
12819;DHT22;6474;53.474;9.894;2024-01-30T04:50:02;2.60;91.50
12819;DHT22;6474;53.474;9.894;2024-01-30T04:52:31;2.60;91.50
12819;DHT22;6474;53.474;9.894;2024-01-30T04:54:59;2.60;91.50
12819;DHT22;6474;53.474;9.894;2024-01-30T04:57:28;2.60;91.50
12819;DHT22;6474;53.474;9.894;2024-01-30T05:00:00;2.60;91.60
12819;DHT22;6474;53.474;9.894;2024-01-30T05:02:28;2.60;91.60
12819;DHT22;6474;53.474;9.894;2024-01-30T05:04:56;2.60;91.60
12819;DHT22;6474;53.474;9.894;2024-01-30T05:07:24;2.60;91.60
12819;DHT22;6474;53.474;9.894;2024-01-30T05:09:53;2.70;91.60
12819;DHT22;6474;53.474;9.894;2024-01-30T05:12:25;2.70;91.60
12819;DHT22;6474;53.474;9.894;2024-01-30T05:14:54;2.70;91.60
12819;DHT22;6474;53.474;9.894;2024-01-30T05:17:22;2.70;91.60
12819;DHT22;6474;53.474;9.894;2024-01-30T05:19:50;2.70;91.60
12819;DHT22;6474;53.474;9.894;2024-01-30T05:22:18;2.70;91.60
12819;DHT22;6474;53.474;9.894;2024-01-30T05:24:46;2.70;92.00
12819;DHT22;6474;53.474;9.894;2024-01-30T05:27:14;2.80;91.70
12819;DHT22;6474;53.474;9.894;2024-01-30T05:29:42;2.80;91.60
12819;DHT22;6474;53.474;9.894;2024-01-30T05:32:12;2.80;91.60
12819;DHT22;6474;53.474;9.894;2024-01-30T05:34:39;2.90;91.60
12819;DHT22;6474;53.474;9.894;2024-01-30T05:37:07;2.90;91.60
12819;DHT22;6474;53.474;9.894;2024-01-30T05:39:35;2.90;91.60
12819;DHT22;6474;53.474;9.894;2024-01-30T05:42:05;2.90;91.60
12819;DHT22;6474;53.474;9.894;2024-01-30T05:44:33;2.90;91.60
12819;DHT22;6474;53.474;9.894;2024-01-30T05:47:01;2.90;91.60
12819;DHT22;6474;53.474;9.894;2024-01-30T05:49:31;2.90;91.60
12819;DHT22;6474;53.474;9.894;2024-01-30T05:51:59;2.90;91.60
12819;DHT22;6474;53.474;9.894;2024-01-30T05:54:27;2.90;91.60
12819;DHT22;6474;53.474;9.894;2024-01-30T05:56:55;3.00;91.70
12819;DHT22;6474;53.474;9.894;2024-01-30T05:59:22;3.00;91.70
12819;DHT22;6474;53.474;9.894;2024-01-30T06:01:50;3.10;91.70
12819;DHT22;6474;53.474;9.894;2024-01-30T06:04:18;3.10;91.70
12819;DHT22;6474;53.474;9.894;2024-01-30T06:06:47;3.20;91.80
12819;DHT22;6474;53.474;9.894;2024-01-30T06:09:15;3.30;91.80
12819;DHT22;6474;53.474;9.894;2024-01-30T06:11:44;3.40;91.80
12819;DHT22;6474;53.474;9.894;2024-01-30T06:14:12;3.50;91.90
12819;DHT22;6474;53.474;9.894;2024-01-30T06:16:40;3.60;91.80
12819;DHT22;6474;53.474;9.894;2024-01-30T06:19:08;3.70;91.80
12819;DHT22;6474;53.474;9.894;2024-01-30T06:21:36;3.80;91.80
12819;DHT22;6474;53.474;9.894;2024-01-30T06:24:06;3.90;91.70
12819;DHT22;6474;53.474;9.894;2024-01-30T06:26:34;4.00;91.80
12819;DHT22;6474;53.474;9.894;2024-01-30T06:29:02;4.10;91.80
12819;DHT22;6474;53.474;9.894;2024-01-30T06:31:30;4.10;91.80
12819;DHT22;6474;53.474;9.894;2024-01-30T06:33:58;4.10;91.80
12819;DHT22;6474;53.474;9.894;2024-01-30T06:36:26;4.20;91.90
12819;DHT22;6474;53.474;9.894;2024-01-30T06:38:54;4.30;91.90
12819;DHT22;6474;53.474;9.894;2024-01-30T06:41:23;4.30;91.90
12819;DHT22;6474;53.474;9.894;2024-01-30T06:43:51;4.40;91.90
12819;DHT22;6474;53.474;9.894;2024-01-30T06:46:19;4.50;91.90
12819;DHT22;6474;53.474;9.894;2024-01-30T06:48:47;4.50;91.80
12819;DHT22;6474;53.474;9.894;2024-01-30T06:51:15;4.60;91.80
12819;DHT22;6474;53.474;9.894;2024-01-30T06:53:44;4.60;91.80
12819;DHT22;6474;53.474;9.894;2024-01-30T06:56:12;4.60;91.80
12819;DHT22;6474;53.474;9.894;2024-01-30T06:58:41;4.60;91.80
12819;DHT22;6474;53.474;9.894;2024-01-30T07:01:09;4.60;91.70
12819;DHT22;6474;53.474;9.894;2024-01-30T07:03:37;4.60;91.70
12819;DHT22;6474;53.474;9.894;2024-01-30T07:06:05;4.60;91.70
12819;DHT22;6474;53.474;9.894;2024-01-30T07:08:33;4.60;91.70
12819;DHT22;6474;53.474;9.894;2024-01-30T07:11:01;4.60;91.70
12819;DHT22;6474;53.474;9.894;2024-01-30T07:13:28;4.60;91.70
12819;DHT22;6474;53.474;9.894;2024-01-30T07:15:58;4.60;91.70
12819;DHT22;6474;53.474;9.894;2024-01-30T07:18:26;4.60;91.70
12819;DHT22;6474;53.474;9.894;2024-01-30T07:20:54;4.60;91.70
12819;DHT22;6474;53.474;9.894;2024-01-30T07:23:22;4.50;91.70
12819;DHT22;6474;53.474;9.894;2024-01-30T07:25:50;4.50;91.70
12819;DHT22;6474;53.474;9.894;2024-01-30T07:28:18;4.50;91.70
12819;DHT22;6474;53.474;9.894;2024-01-30T07:30:46;4.50;91.80
12819;DHT22;6474;53.474;9.894;2024-01-30T07:33:17;4.50;91.80
12819;DHT22;6474;53.474;9.894;2024-01-30T07:35:45;4.50;91.80
12819;DHT22;6474;53.474;9.894;2024-01-30T07:38:13;4.40;91.80
12819;DHT22;6474;53.474;9.894;2024-01-30T07:40:41;4.40;91.90
12819;DHT22;6474;53.474;9.894;2024-01-30T07:43:09;4.40;92.00
12819;DHT22;6474;53.474;9.894;2024-01-30T07:45:38;4.40;92.00
12819;DHT22;6474;53.474;9.894;2024-01-30T07:48:06;4.40;92.00
12819;DHT22;6474;53.474;9.894;2024-01-30T07:50:35;4.50;92.00
12819;DHT22;6474;53.474;9.894;2024-01-30T07:53:04;4.40;92.00
12819;DHT22;6474;53.474;9.894;2024-01-30T07:55:32;4.40;92.00
12819;DHT22;6474;53.474;9.894;2024-01-30T07:58:00;4.40;92.00
12819;DHT22;6474;53.474;9.894;2024-01-30T08:00:28;4.40;92.00
12819;DHT22;6474;53.474;9.894;2024-01-30T08:02:56;4.40;92.00
12819;DHT22;6474;53.474;9.894;2024-01-30T08:05:25;4.40;92.00
12819;DHT22;6474;53.474;9.894;2024-01-30T08:07:55;4.40;92.00
12819;DHT22;6474;53.474;9.894;2024-01-30T08:10:23;4.40;92.00
12819;DHT22;6474;53.474;9.894;2024-01-30T08:12:51;4.40;92.00
12819;DHT22;6474;53.474;9.894;2024-01-30T08:15:19;4.40;92.00
12819;DHT22;6474;53.474;9.894;2024-01-30T08:17:47;4.50;92.10
12819;DHT22;6474;53.474;9.894;2024-01-30T08:20:22;4.50;92.10
12819;DHT22;6474;53.474;9.894;2024-01-30T08:22:50;4.50;92.00
12819;DHT22;6474;53.474;9.894;2024-01-30T08:25:19;4.50;92.00
12819;DHT22;6474;53.474;9.894;2024-01-30T08:27:48;4.60;92.10
12819;DHT22;6474;53.474;9.894;2024-01-30T08:30:16;4.60;92.10
12819;DHT22;6474;53.474;9.894;2024-01-30T08:32:44;4.60;92.10
12819;DHT22;6474;53.474;9.894;2024-01-30T08:35:12;4.70;92.10
12819;DHT22;6474;53.474;9.894;2024-01-30T08:37:43;4.70;92.10
12819;DHT22;6474;53.474;9.894;2024-01-30T08:40:11;4.80;92.20
12819;DHT22;6474;53.474;9.894;2024-01-30T08:42:40;4.80;92.20
12819;DHT22;6474;53.474;9.894;2024-01-30T08:45:09;4.80;92.20
12819;DHT22;6474;53.474;9.894;2024-01-30T08:47:37;4.80;92.20
12819;DHT22;6474;53.474;9.894;2024-01-30T08:50:06;4.90;92.20
12819;DHT22;6474;53.474;9.894;2024-01-30T08:52:34;4.90;92.20
12819;DHT22;6474;53.474;9.894;2024-01-30T08:55:03;5.00;92.30
12819;DHT22;6474;53.474;9.894;2024-01-30T08:57:31;5.00;92.30
12819;DHT22;6474;53.474;9.894;2024-01-30T09:00:01;5.10;92.30
12819;DHT22;6474;53.474;9.894;2024-01-30T09:02:34;5.10;92.30
12819;DHT22;6474;53.474;9.894;2024-01-30T09:05:02;5.20;92.30
12819;DHT22;6474;53.474;9.894;2024-01-30T09:07:30;5.20;92.30
12819;DHT22;6474;53.474;9.894;2024-01-30T09:09:58;5.30;92.30
12819;DHT22;6474;53.474;9.894;2024-01-30T09:12:26;5.30;92.30
12819;DHT22;6474;53.474;9.894;2024-01-30T09:14:54;5.30;92.30
12819;DHT22;6474;53.474;9.894;2024-01-30T09:17:23;5.40;92.30
12819;DHT22;6474;53.474;9.894;2024-01-30T09:19:51;5.50;92.40
12819;DHT22;6474;53.474;9.894;2024-01-30T09:22:19;5.50;92.40
12819;DHT22;6474;53.474;9.894;2024-01-30T09:24:47;5.50;92.40
12819;DHT22;6474;53.474;9.894;2024-01-30T09:27:15;5.60;92.40
12819;DHT22;6474;53.474;9.894;2024-01-30T09:29:43;5.60;92.40
12819;DHT22;6474;53.474;9.894;2024-01-30T09:32:11;5.60;92.40
12819;DHT22;6474;53.474;9.894;2024-01-30T09:34:40;5.70;92.40
12819;DHT22;6474;53.474;9.894;2024-01-30T09:37:08;5.70;92.40
12819;DHT22;6474;53.474;9.894;2024-01-30T09:39:36;5.80;92.40
12819;DHT22;6474;53.474;9.894;2024-01-30T09:42:10;5.80;92.40
12819;DHT22;6474;53.474;9.894;2024-01-30T09:44:40;5.90;92.50
12819;DHT22;6474;53.474;9.894;2024-01-30T09:47:10;6.00;92.50
12819;DHT22;6474;53.474;9.894;2024-01-30T09:49:41;6.00;92.50
12819;DHT22;6474;53.474;9.894;2024-01-30T09:52:11;6.10;92.60
12819;DHT22;6474;53.474;9.894;2024-01-30T09:54:40;6.10;92.60
12819;DHT22;6474;53.474;9.894;2024-01-30T09:57:09;6.30;92.70
12819;DHT22;6474;53.474;9.894;2024-01-30T09:59:37;6.30;92.60
12819;DHT22;6474;53.474;9.894;2024-01-30T10:02:04;6.50;92.70
12819;DHT22;6474;53.474;9.894;2024-01-30T10:04:33;6.60;92.60
12819;DHT22;6474;53.474;9.894;2024-01-30T10:07:03;6.70;92.70
12819;DHT22;6474;53.474;9.894;2024-01-30T10:09:32;6.80;92.60
12819;DHT22;6474;53.474;9.894;2024-01-30T10:12:02;7.00;92.70
12819;DHT22;6474;53.474;9.894;2024-01-30T10:14:30;7.10;92.60
12819;DHT22;6474;53.474;9.894;2024-01-30T10:16:59;7.20;92.50
12819;DHT22;6474;53.474;9.894;2024-01-30T10:19:26;7.30;92.60
12819;DHT22;6474;53.474;9.894;2024-01-30T10:21:54;7.40;92.60
12819;DHT22;6474;53.474;9.894;2024-01-30T10:24:26;7.40;92.60
12819;DHT22;6474;53.474;9.894;2024-01-30T10:26:56;7.50;92.70
12819;DHT22;6474;53.474;9.894;2024-01-30T10:29:26;7.50;92.70
12819;DHT22;6474;53.474;9.894;2024-01-30T10:31:58;7.60;92.70
12819;DHT22;6474;53.474;9.894;2024-01-30T10:34:26;7.70;92.80
12819;DHT22;6474;53.474;9.894;2024-01-30T10:37:00;7.80;92.80
12819;DHT22;6474;53.474;9.894;2024-01-30T10:39:30;7.80;92.80
12819;DHT22;6474;53.474;9.894;2024-01-30T10:42:03;7.90;92.80
12819;DHT22;6474;53.474;9.894;2024-01-30T10:44:37;7.90;92.80
12819;DHT22;6474;53.474;9.894;2024-01-30T10:47:11;8.00;92.90
12819;DHT22;6474;53.474;9.894;2024-01-30T10:49:41;8.00;92.90
12819;DHT22;6474;53.474;9.894;2024-01-30T10:52:10;8.10;92.90
12819;DHT22;6474;53.474;9.894;2024-01-30T10:54:44;8.10;92.80
12819;DHT22;6474;53.474;9.894;2024-01-30T10:57:12;8.10;92.90
12819;DHT22;6474;53.474;9.894;2024-01-30T10:59:41;8.20;92.90
12819;DHT22;6474;53.474;9.894;2024-01-30T11:02:10;8.20;92.90
12819;DHT22;6474;53.474;9.894;2024-01-30T11:04:40;8.20;93.00
12819;DHT22;6474;53.474;9.894;2024-01-30T11:07:15;8.30;93.00
12819;DHT22;6474;53.474;9.894;2024-01-30T11:09:51;8.30;93.00
12819;DHT22;6474;53.474;9.894;2024-01-30T11:12:22;8.30;92.90
12819;DHT22;6474;53.474;9.894;2024-01-30T11:15:02;8.40;93.00
12819;DHT22;6474;53.474;9.894;2024-01-30T11:17:42;8.40;93.10
12819;DHT22;6474;53.474;9.894;2024-01-30T11:20:11;8.40;93.00
12819;DHT22;6474;53.474;9.894;2024-01-30T11:22:42;8.50;93.00
12819;DHT22;6474;53.474;9.894;2024-01-30T11:25:14;8.40;93.00
12819;DHT22;6474;53.474;9.894;2024-01-30T11:27:42;8.50;93.00
12819;DHT22;6474;53.474;9.894;2024-01-30T11:30:20;8.50;93.00
12819;DHT22;6474;53.474;9.894;2024-01-30T11:32:59;8.50;93.10
12819;DHT22;6474;53.474;9.894;2024-01-30T11:35:30;8.50;93.10
12819;DHT22;6474;53.474;9.894;2024-01-30T11:37:59;8.50;93.10
12819;DHT22;6474;53.474;9.894;2024-01-30T11:40:31;8.50;93.10
12819;DHT22;6474;53.474;9.894;2024-01-30T11:43:01;8.50;93.10
12819;DHT22;6474;53.474;9.894;2024-01-30T11:45:30;8.50;93.10
12819;DHT22;6474;53.474;9.894;2024-01-30T11:47:58;8.50;93.10
12819;DHT22;6474;53.474;9.894;2024-01-30T11:50:30;8.50;93.00
12819;DHT22;6474;53.474;9.894;2024-01-30T11:52:58;8.50;93.00
12819;DHT22;6474;53.474;9.894;2024-01-30T11:55:27;8.50;93.00
12819;DHT22;6474;53.474;9.894;2024-01-30T11:58:02;8.60;93.10
12819;DHT22;6474;53.474;9.894;2024-01-30T12:00:31;8.60;93.10
12819;DHT22;6474;53.474;9.894;2024-01-30T12:03:01;8.50;93.10
12819;DHT22;6474;53.474;9.894;2024-01-30T12:05:30;8.50;93.10
12819;DHT22;6474;53.474;9.894;2024-01-30T12:07:59;8.50;93.10
12819;DHT22;6474;53.474;9.894;2024-01-30T12:10:28;8.60;93.50
12819;DHT22;6474;53.474;9.894;2024-01-30T12:12:57;8.60;93.10
12819;DHT22;6474;53.474;9.894;2024-01-30T12:15:27;8.60;93.10
12819;DHT22;6474;53.474;9.894;2024-01-30T12:18:04;8.60;93.10
12819;DHT22;6474;53.474;9.894;2024-01-30T12:20:33;8.60;93.10
12819;DHT22;6474;53.474;9.894;2024-01-30T12:23:01;8.60;93.10
12819;DHT22;6474;53.474;9.894;2024-01-30T12:25:29;8.60;93.10
12819;DHT22;6474;53.474;9.894;2024-01-30T12:27:57;8.60;93.10
12819;DHT22;6474;53.474;9.894;2024-01-30T12:30:27;8.60;93.10
12819;DHT22;6474;53.474;9.894;2024-01-30T12:32:55;8.60;93.10
12819;DHT22;6474;53.474;9.894;2024-01-30T12:35:24;8.60;93.10
12819;DHT22;6474;53.474;9.894;2024-01-30T12:37:55;8.60;93.10
12819;DHT22;6474;53.474;9.894;2024-01-30T12:40:25;8.60;93.10
12819;DHT22;6474;53.474;9.894;2024-01-30T12:42:53;8.60;93.20
12819;DHT22;6474;53.474;9.894;2024-01-30T12:45:21;8.70;93.20
12819;DHT22;6474;53.474;9.894;2024-01-30T12:47:51;8.70;93.20
12819;DHT22;6474;53.474;9.894;2024-01-30T12:50:19;8.70;93.10
12819;DHT22;6474;53.474;9.894;2024-01-30T12:52:47;8.70;93.10
12819;DHT22;6474;53.474;9.894;2024-01-30T12:55:16;8.70;93.10
12819;DHT22;6474;53.474;9.894;2024-01-30T12:57:44;8.70;93.20
12819;DHT22;6474;53.474;9.894;2024-01-30T13:00:13;8.70;93.20
12819;DHT22;6474;53.474;9.894;2024-01-30T13:02:43;8.70;93.20
12819;DHT22;6474;53.474;9.894;2024-01-30T13:05:13;8.70;93.20
12819;DHT22;6474;53.474;9.894;2024-01-30T13:07:41;8.70;93.20
12819;DHT22;6474;53.474;9.894;2024-01-30T13:10:10;8.60;93.10
12819;DHT22;6474;53.474;9.894;2024-01-30T13:12:38;8.60;93.10
12819;DHT22;6474;53.474;9.894;2024-01-30T13:15:06;8.60;93.10
12819;DHT22;6474;53.474;9.894;2024-01-30T13:17:34;8.60;93.10
12819;DHT22;6474;53.474;9.894;2024-01-30T13:20:03;8.60;93.10
12819;DHT22;6474;53.474;9.894;2024-01-30T13:22:39;8.60;93.20
12819;DHT22;6474;53.474;9.894;2024-01-30T13:25:08;8.60;93.20
12819;DHT22;6474;53.474;9.894;2024-01-30T13:27:36;8.60;93.10
12819;DHT22;6474;53.474;9.894;2024-01-30T13:30:07;8.60;93.10
12819;DHT22;6474;53.474;9.894;2024-01-30T13:32:35;8.70;93.20
12819;DHT22;6474;53.474;9.894;2024-01-30T13:35:04;8.70;93.20
12819;DHT22;6474;53.474;9.894;2024-01-30T13:37:32;8.70;93.20
12819;DHT22;6474;53.474;9.894;2024-01-30T13:40:02;8.70;93.10
12819;DHT22;6474;53.474;9.894;2024-01-30T13:42:37;8.70;93.10
12819;DHT22;6474;53.474;9.894;2024-01-30T13:45:05;8.80;93.10
12819;DHT22;6474;53.474;9.894;2024-01-30T13:47:38;8.70;93.10
12819;DHT22;6474;53.474;9.894;2024-01-30T13:50:07;8.70;93.10
12819;DHT22;6474;53.474;9.894;2024-01-30T13:52:36;8.70;93.10
12819;DHT22;6474;53.474;9.894;2024-01-30T13:55:12;8.80;93.50
12819;DHT22;6474;53.474;9.894;2024-01-30T13:57:41;8.80;93.20
12819;DHT22;6474;53.474;9.894;2024-01-30T14:00:10;8.80;93.20
12819;DHT22;6474;53.474;9.894;2024-01-30T14:02:38;8.80;93.20
12819;DHT22;6474;53.474;9.894;2024-01-30T14:05:07;8.80;93.10
12819;DHT22;6474;53.474;9.894;2024-01-30T14:07:36;8.90;93.50
12819;DHT22;6474;53.474;9.894;2024-01-30T14:10:06;8.90;93.20
12819;DHT22;6474;53.474;9.894;2024-01-30T14:12:41;8.90;93.10
12819;DHT22;6474;53.474;9.894;2024-01-30T14:15:09;8.90;93.10
12819;DHT22;6474;53.474;9.894;2024-01-30T14:17:53;8.90;93.10
12819;DHT22;6474;53.474;9.894;2024-01-30T14:20:21;8.90;93.10
12819;DHT22;6474;53.474;9.894;2024-01-30T14:22:49;8.90;93.10
12819;DHT22;6474;53.474;9.894;2024-01-30T14:25:18;8.90;93.10
12819;DHT22;6474;53.474;9.894;2024-01-30T14:27:47;8.90;93.10
12819;DHT22;6474;53.474;9.894;2024-01-30T14:30:16;8.90;93.10
12819;DHT22;6474;53.474;9.894;2024-01-30T14:32:44;8.90;93.10
12819;DHT22;6474;53.474;9.894;2024-01-30T14:35:13;9.00;93.10
12819;DHT22;6474;53.474;9.894;2024-01-30T14:37:41;9.00;93.10
12819;DHT22;6474;53.474;9.894;2024-01-30T14:40:09;8.90;93.10
12819;DHT22;6474;53.474;9.894;2024-01-30T14:42:38;9.00;93.10
12819;DHT22;6474;53.474;9.894;2024-01-30T14:45:07;9.00;93.10
12819;DHT22;6474;53.474;9.894;2024-01-30T14:47:36;9.00;93.10
12819;DHT22;6474;53.474;9.894;2024-01-30T14:50:05;9.00;93.10
12819;DHT22;6474;53.474;9.894;2024-01-30T14:52:35;9.00;93.10
12819;DHT22;6474;53.474;9.894;2024-01-30T14:55:05;9.00;93.10
12819;DHT22;6474;53.474;9.894;2024-01-30T14:57:33;9.10;93.10
12819;DHT22;6474;53.474;9.894;2024-01-30T15:00:02;9.10;93.10
12819;DHT22;6474;53.474;9.894;2024-01-30T15:02:32;9.10;93.10
12819;DHT22;6474;53.474;9.894;2024-01-30T15:04:59;9.10;93.10
12819;DHT22;6474;53.474;9.894;2024-01-30T15:07:28;9.10;93.10
12819;DHT22;6474;53.474;9.894;2024-01-30T15:10:07;9.10;93.00
12819;DHT22;6474;53.474;9.894;2024-01-30T15:12:35;9.20;93.10
12819;DHT22;6474;53.474;9.894;2024-01-30T15:15:06;9.20;93.10
12819;DHT22;6474;53.474;9.894;2024-01-30T15:17:37;9.20;93.00
12819;DHT22;6474;53.474;9.894;2024-01-30T15:20:06;9.20;93.00
12819;DHT22;6474;53.474;9.894;2024-01-30T15:22:34;9.20;93.00
12819;DHT22;6474;53.474;9.894;2024-01-30T15:25:03;9.20;93.00
12819;DHT22;6474;53.474;9.894;2024-01-30T15:27:31;9.20;93.00
12819;DHT22;6474;53.474;9.894;2024-01-30T15:29:59;9.30;93.00
12819;DHT22;6474;53.474;9.894;2024-01-30T15:32:27;9.20;92.90
12819;DHT22;6474;53.474;9.894;2024-01-30T15:35:00;9.20;93.00
12819;DHT22;6474;53.474;9.894;2024-01-30T15:37:31;9.20;93.00
12819;DHT22;6474;53.474;9.894;2024-01-30T15:39:59;9.20;93.00
12819;DHT22;6474;53.474;9.894;2024-01-30T15:42:29;9.30;93.00
12819;DHT22;6474;53.474;9.894;2024-01-30T15:44:57;9.20;93.00
12819;DHT22;6474;53.474;9.894;2024-01-30T15:47:26;9.20;93.00
12819;DHT22;6474;53.474;9.894;2024-01-30T15:49:53;9.20;93.00
12819;DHT22;6474;53.474;9.894;2024-01-30T15:52:23;9.20;93.00
12819;DHT22;6474;53.474;9.894;2024-01-30T15:54:51;9.20;93.00
12819;DHT22;6474;53.474;9.894;2024-01-30T15:57:19;9.20;93.00
12819;DHT22;6474;53.474;9.894;2024-01-30T15:59:46;9.20;93.00
12819;DHT22;6474;53.474;9.894;2024-01-30T16:02:14;9.20;92.90
12819;DHT22;6474;53.474;9.894;2024-01-30T16:04:43;9.20;92.80
12819;DHT22;6474;53.474;9.894;2024-01-30T16:07:11;9.20;92.70
12819;DHT22;6474;53.474;9.894;2024-01-30T16:09:40;9.10;92.70
12819;DHT22;6474;53.474;9.894;2024-01-30T16:12:10;9.10;92.70